createdAt,value
2022-09-29T00:00:18.605Z,0.4
2022-09-29T00:03:18.710Z,0.4
2022-09-29T00:06:18.532Z,0.35
2022-09-29T00:09:18.632Z,0.15
2022-09-29T00:12:18.497Z,0.15
2022-09-29T00:15:18.519Z,0.1
2022-09-29T00:18:18.509Z,0
2022-09-29T00:21:18.525Z,0.3
2022-09-29T00:24:18.625Z,1.05
2022-09-29T00:27:18.521Z,1.05
2022-09-29T00:30:18.516Z,1.15
2022-09-29T00:33:18.524Z,1
2022-09-29T00:36:18.490Z,0.85
2022-09-29T00:39:18.566Z,1.2
2022-09-29T00:42:18.550Z,1.45
2022-09-29T00:45:18.549Z,1.35
2022-09-29T00:48:18.564Z,1
2022-09-29T00:51:18.526Z,0.45
2022-09-29T00:54:18.660Z,0.65
2022-09-29T00:57:18.542Z,0
2022-09-29T01:00:18.536Z,0
2022-09-29T01:03:18.626Z,0
2022-09-29T01:06:18.547Z,0
2022-09-29T01:09:18.574Z,0.4
2022-09-29T01:12:18.555Z,0.4
2022-09-29T01:15:18.550Z,0.45
2022-09-29T01:18:18.562Z,0.35
2022-09-29T01:21:18.552Z,0.45
2022-09-29T01:24:18.750Z,0.2
2022-09-29T01:27:18.560Z,0.3
2022-09-29T01:30:18.672Z,0.35
2022-09-29T01:33:18.540Z,0.15
2022-09-29T01:36:18.582Z,0.45
2022-09-29T01:39:18.621Z,0.15
2022-09-29T01:42:18.612Z,0
2022-09-29T01:45:18.610Z,0
2022-09-29T01:48:18.601Z,0
2022-09-29T01:51:18.550Z,0
2022-09-29T01:54:18.694Z,0
2022-09-29T01:57:18.564Z,0
2022-09-29T02:00:18.607Z,0
2022-09-29T02:03:18.604Z,0.15
2022-09-29T02:06:18.611Z,0
2022-09-29T02:09:18.649Z,0
2022-09-29T02:12:18.665Z,0
2022-09-29T02:15:18.606Z,0
2022-09-29T02:18:18.651Z,0
2022-09-29T02:21:18.592Z,0
2022-09-29T02:24:18.677Z,0
2022-09-29T02:27:18.608Z,0
2022-09-29T02:30:18.655Z,0
2022-09-29T02:33:18.643Z,0
2022-09-29T02:36:18.627Z,0
2022-09-29T02:39:18.635Z,0.15
2022-09-29T02:42:18.720Z,0.45
2022-09-29T02:45:18.615Z,0.7
2022-09-29T02:48:18.744Z,0.75
2022-09-29T02:51:18.692Z,0.45
2022-09-29T02:54:18.745Z,0.45
2022-09-29T02:57:18.742Z,0.2
2022-09-29T03:00:18.743Z,0.5
2022-09-29T03:03:18.753Z,0.3
2022-09-29T03:06:18.761Z,0.35
2022-09-29T03:09:18.791Z,0.4
2022-09-29T03:12:18.702Z,0.2
2022-09-29T03:15:18.750Z,0.5
2022-09-29T03:18:18.682Z,0.45
2022-09-29T03:21:18.689Z,0.3
2022-09-29T03:24:18.891Z,0.15
2022-09-29T03:27:18.784Z,0.2
2022-09-29T03:30:18.819Z,0.1
2022-09-29T03:33:18.663Z,0.25
2022-09-29T03:36:18.761Z,0.25
2022-09-29T03:39:18.925Z,0.4
2022-09-29T03:42:18.722Z,0.5
2022-09-29T03:45:18.680Z,0.25
2022-09-29T03:48:24.810Z,0.2
2022-09-29T03:51:18.742Z,0.25
2022-09-29T03:54:18.680Z,0
2022-09-29T03:57:18.700Z,0.35
2022-09-29T04:00:18.711Z,0.25
2022-09-29T04:03:18.650Z,0
2022-09-29T04:06:18.777Z,0.2
2022-09-29T04:09:18.911Z,0.15
2022-09-29T04:12:18.730Z,0
2022-09-29T04:15:18.785Z,0
2022-09-29T04:18:18.761Z,0.2
2022-09-29T04:21:18.735Z,0.3
2022-09-29T04:24:18.742Z,0.35
2022-09-29T04:27:18.707Z,0.3
2022-09-29T04:30:20.432Z,0.3
2022-09-29T04:33:19.720Z,0.3
2022-09-29T04:36:20.056Z,0.2
2022-09-29T04:39:19.280Z,0.15
2022-09-29T04:42:20.108Z,0.25
2022-09-29T04:45:20.196Z,0.2
2022-09-29T04:48:19.607Z,0.15
2022-09-29T04:51:19.415Z,0.25
2022-09-29T04:54:19.944Z,0.2
2022-09-29T04:57:18.761Z,0.15
2022-09-29T05:00:18.785Z,0.35
2022-09-29T05:03:18.742Z,0.45
2022-09-29T05:06:18.795Z,0.3
2022-09-29T05:09:24.133Z,0.35
2022-09-29T05:12:18.740Z,0.55
2022-09-29T05:15:25.664Z,0.65
2022-09-29T05:18:18.853Z,0.55
2022-09-29T05:21:27.924Z,0.6
2022-09-29T05:24:18.779Z,0.65
2022-09-29T05:27:18.790Z,0.55
2022-09-29T05:30:18.768Z,0.6
2022-09-29T05:33:18.791Z,0.4
2022-09-29T05:36:18.771Z,0.35
2022-09-29T05:39:18.810Z,0
2022-09-29T05:42:18.769Z,0
2022-09-29T05:45:18.886Z,0
2022-09-29T05:48:18.756Z,0
2022-09-29T05:51:23.611Z,0
2022-09-29T05:54:18.867Z,0
2022-09-29T05:57:18.883Z,0
2022-09-29T06:00:18.803Z,0
2022-09-29T06:03:18.790Z,0
2022-09-29T06:06:18.845Z,0
2022-09-29T06:09:18.821Z,0
2022-09-29T06:12:22.701Z,0
2022-09-29T06:15:18.887Z,0.15
2022-09-29T06:18:18.830Z,0.3
2022-09-29T06:21:18.855Z,0.55
2022-09-29T06:24:18.791Z,0.4
2022-09-29T06:27:18.797Z,0.2
2022-09-29T06:30:19.166Z,0.4
2022-09-29T06:33:18.847Z,0.45
2022-09-29T06:36:18.828Z,0.35
2022-09-29T06:39:19.014Z,0.25
2022-09-29T06:42:18.860Z,0.25
2022-09-29T06:45:22.952Z,0
2022-09-29T06:48:19.103Z,0
2022-09-29T06:51:18.813Z,0.15
2022-09-29T06:54:18.928Z,0.15
2022-09-29T06:57:20.591Z,0.35
2022-09-29T07:00:18.833Z,0.4
2022-09-29T07:03:18.841Z,0.35
2022-09-29T07:06:21.444Z,0.35
2022-09-29T07:09:19.282Z,0.45
2022-09-29T07:12:18.861Z,0.55
2022-09-29T07:15:18.873Z,0.45
2022-09-29T07:18:18.906Z,0.5
2022-09-29T07:21:18.936Z,0.35
2022-09-29T07:24:18.831Z,0.35
2022-09-29T07:27:18.963Z,0.2
2022-09-29T07:30:19.250Z,0.25
2022-09-29T07:33:32.443Z,0.1
2022-09-29T07:36:18.917Z,0.35
2022-09-29T07:39:19.101Z,0.25
2022-09-29T07:42:19.012Z,0.3
2022-09-29T07:45:18.896Z,0.35
2022-09-29T07:48:18.903Z,0.25
2022-09-29T07:51:18.877Z,0.25
2022-09-29T07:54:19.024Z,0.2
2022-09-29T07:57:18.870Z,0.15
2022-09-29T08:00:18.917Z,0.25
2022-09-29T08:03:18.927Z,0.35
2022-09-29T08:06:18.897Z,0.25
2022-09-29T08:09:19.001Z,0.4
2022-09-29T08:12:18.896Z,0.45
2022-09-29T08:15:18.886Z,0.4
2022-09-29T08:18:18.976Z,0.35
2022-09-29T08:21:18.942Z,0.5
2022-09-29T08:24:18.994Z,0.7
2022-09-29T08:27:20.491Z,0.45
2022-09-29T08:30:21.480Z,0.35
2022-09-29T08:33:18.936Z,0.5
2022-09-29T08:36:18.932Z,0.6
2022-09-29T08:39:18.892Z,0.3
2022-09-29T08:42:18.923Z,0.25
2022-09-29T08:45:18.928Z,0.25
2022-09-29T08:48:24.109Z,0.65
2022-09-29T08:51:18.932Z,0.4
2022-09-29T08:54:35.144Z,0.4
2022-09-29T08:57:18.965Z,0.75
2022-09-29T09:00:18.952Z,0.8
2022-09-29T09:03:18.981Z,1.25
2022-09-29T09:06:19.397Z,0.8
2022-09-29T09:09:19.117Z,0.8
2022-09-29T09:12:18.936Z,0.3
2022-09-29T09:15:18.917Z,0.35
2022-09-29T09:18:18.998Z,0.9
2022-09-29T09:21:19.017Z,0.65
2022-09-29T09:24:24.735Z,0.8
2022-09-29T09:27:19.166Z,0.7
2022-09-29T09:30:19.005Z,0.9
2022-09-29T09:33:30.658Z,0.9
2022-09-29T09:36:32.140Z,1.25
2022-09-29T09:39:19.140Z,0.7
2022-09-29T09:42:19.144Z,0.85
2022-09-29T09:45:18.990Z,1.05
2022-09-29T09:48:26.233Z,1.65
2022-09-29T09:51:18.976Z,1
2022-09-29T09:54:19.100Z,1.3
2022-09-29T09:57:18.979Z,1
2022-09-29T10:00:19.117Z,1.05
2022-09-29T10:03:19.107Z,1.35
2022-09-29T10:06:19.115Z,1.25
2022-09-29T10:09:19.502Z,1.55
2022-09-29T10:12:19.028Z,1.45
2022-09-29T10:15:19.115Z,1.65
2022-09-29T10:18:19.096Z,1.5
2022-09-29T10:21:19.133Z,1.05
2022-09-29T10:24:19.141Z,0.6
2022-09-29T10:27:19.134Z,1.85
2022-09-29T10:30:19.177Z,1.45
2022-09-29T10:33:19.197Z,1.2
2022-09-29T10:36:19.050Z,0.9
2022-09-29T10:39:19.083Z,1.05
2022-09-29T10:42:19.122Z,1.1
2022-09-29T10:45:19.077Z,1.2
2022-09-29T10:48:19.106Z,1.35
2022-09-29T10:51:19.184Z,0.8
2022-09-29T10:54:19.228Z,1.1
2022-09-29T10:57:19.073Z,1.25
2022-09-29T11:00:19.086Z,0.75
2022-09-29T11:03:19.102Z,1.15
2022-09-29T11:06:19.201Z,0.95
2022-09-29T11:09:19.549Z,0.9
2022-09-29T11:12:19.133Z,0.95
2022-09-29T11:15:19.172Z,0.85
2022-09-29T11:18:19.081Z,1.4
2022-09-29T11:21:19.144Z,1.2
2022-09-29T11:24:19.091Z,1.7
2022-09-29T11:27:19.190Z,1.1
2022-09-29T11:30:19.270Z,1
2022-09-29T11:33:19.234Z,0.9
2022-09-29T11:36:19.166Z,0.95
2022-09-29T11:39:19.278Z,0.45
2022-09-29T11:42:19.200Z,0.8
2022-09-29T11:45:24.023Z,1.05
2022-09-29T11:48:19.236Z,1.65
2022-09-29T11:51:19.139Z,1.25
2022-09-29T11:54:19.184Z,1.15
2022-09-29T11:57:20.546Z,1.1
2022-09-29T12:00:21.955Z,1.1
2022-09-29T12:03:19.461Z,0.75
2022-09-29T12:06:19.583Z,0.5
2022-09-29T12:09:19.528Z,0.35
2022-09-29T12:12:24.882Z,0.15
2022-09-29T12:15:19.280Z,1
2022-09-29T12:18:19.134Z,0.85
2022-09-29T12:21:19.223Z,0.5
2022-09-29T12:24:19.317Z,0.25
2022-09-29T12:27:19.173Z,0.3
2022-09-29T12:30:19.199Z,0.25
2022-09-29T12:33:19.180Z,0.45
2022-09-29T12:36:19.242Z,0.5
2022-09-29T12:39:19.300Z,0.25
2022-09-29T12:42:19.116Z,0.3
2022-09-29T12:45:19.245Z,0.65
2022-09-29T12:48:19.244Z,0.25
2022-09-29T12:51:19.197Z,0.1
2022-09-29T12:54:19.263Z,0.55
2022-09-29T12:57:19.173Z,0.35
2022-09-29T13:00:19.268Z,0.5
2022-09-29T13:03:19.327Z,0.55
2022-09-29T13:06:19.136Z,0
2022-09-29T13:09:19.682Z,0.25
2022-09-29T13:12:19.272Z,0.35
2022-09-29T13:15:19.236Z,0.55
2022-09-29T13:18:19.258Z,0.3
2022-09-29T13:21:19.243Z,0.7
2022-09-29T13:24:19.423Z,0.4
2022-09-29T13:27:19.223Z,0.4
2022-09-29T13:30:19.188Z,0.35
2022-09-29T13:33:19.383Z,0.35
2022-09-29T13:36:19.201Z,0.65
2022-09-29T13:39:19.251Z,0.7
2022-09-29T13:42:19.211Z,0.5
2022-09-29T13:45:19.278Z,0
2022-09-29T13:48:19.253Z,0.05
2022-09-29T13:51:19.229Z,0.55
2022-09-29T13:54:19.356Z,0.45
2022-09-29T13:57:26.477Z,0.55
2022-09-29T14:00:19.182Z,0.5
2022-09-29T14:03:19.213Z,0.6
2022-09-29T14:09:19.762Z,0.45
2022-09-29T14:12:19.187Z,0.65
2022-09-29T14:15:19.627Z,0.65
2022-09-29T14:18:19.267Z,0.4
2022-09-29T14:21:19.292Z,0.35
2022-09-29T14:24:22.116Z,0.25
2022-09-29T14:27:19.244Z,0.25
2022-09-29T14:30:19.232Z,0.6
2022-09-29T14:33:19.267Z,0.9
2022-09-29T14:36:19.262Z,0.5
2022-09-29T14:39:26.728Z,0.6
2022-09-29T14:42:19.273Z,0.8
2022-09-29T14:45:19.224Z,0.65
2022-09-29T14:48:19.309Z,0.6
2022-09-29T14:51:19.309Z,0.4
2022-09-29T14:54:19.326Z,0.5
2022-09-29T14:57:19.329Z,1
2022-09-29T15:00:19.350Z,0.45
2022-09-29T15:03:27.778Z,0.5
2022-09-29T15:06:19.433Z,0.55
2022-09-29T15:09:19.715Z,0.5
2022-09-29T15:12:19.264Z,0.4
2022-09-29T15:15:19.358Z,0.5
2022-09-29T15:18:19.434Z,0.5
2022-09-29T15:21:19.418Z,0.25
2022-09-29T15:24:19.446Z,0.25
2022-09-29T15:27:19.515Z,0.35
2022-09-29T15:30:19.313Z,0.5
2022-09-29T15:33:19.405Z,0.5
2022-09-29T15:36:19.602Z,0.4
2022-09-29T15:39:19.454Z,0.1
2022-09-29T15:42:19.386Z,0.3
2022-09-29T15:45:19.386Z,0.4
2022-09-29T15:48:19.467Z,0.3
2022-09-29T15:51:19.357Z,0.4
2022-09-29T15:54:19.646Z,0.5
2022-09-29T15:57:19.304Z,0.4
2022-09-29T16:00:19.392Z,0.25
2022-09-29T16:03:19.397Z,0.35
2022-09-29T16:06:19.389Z,0.15
2022-09-29T16:09:19.460Z,0
2022-09-29T16:12:19.396Z,0.15
2022-09-29T16:15:19.451Z,0
2022-09-29T16:18:19.379Z,0
2022-09-29T16:21:19.426Z,0
2022-09-29T16:24:19.492Z,0.05
2022-09-29T16:27:19.366Z,0.2
2022-09-29T16:30:19.421Z,0
2022-09-29T16:33:20.028Z,0.2
2022-09-29T16:36:19.424Z,0
2022-09-29T16:39:21.157Z,0.35
2022-09-29T16:42:19.379Z,0.25
2022-09-29T16:45:19.429Z,0.15
2022-09-29T16:48:19.447Z,0.2
2022-09-29T16:51:40.183Z,0.2
2022-09-29T16:54:19.391Z,0
2022-09-29T16:57:19.439Z,0.15
2022-09-29T17:00:19.453Z,0
2022-09-29T17:03:19.366Z,0
2022-09-29T17:06:19.451Z,0.2
2022-09-29T17:09:20.007Z,0.3
2022-09-29T17:12:19.386Z,0.3
2022-09-29T17:15:19.414Z,0.15
2022-09-29T17:18:19.381Z,0.1
2022-09-29T17:21:19.472Z,0
2022-09-29T17:24:19.561Z,0
2022-09-29T17:27:19.404Z,0
2022-09-29T17:30:19.439Z,0.2
2022-09-29T17:33:19.517Z,0.55
2022-09-29T17:36:19.489Z,0.3
2022-09-29T17:39:19.427Z,0.5
2022-09-29T17:42:19.450Z,0.2
2022-09-29T17:45:19.525Z,0
2022-09-29T17:48:19.408Z,0.1
2022-09-29T17:51:19.562Z,0.05
2022-09-29T17:54:19.831Z,0.25
2022-09-29T17:57:19.474Z,0.2
2022-09-29T18:00:19.624Z,0.25
2022-09-29T18:03:19.557Z,0
2022-09-29T18:06:19.540Z,0.35
2022-09-29T18:09:19.635Z,0.15
2022-09-29T18:12:19.537Z,0
2022-09-29T18:15:19.495Z,0.45
2022-09-29T18:18:19.494Z,0.7
2022-09-29T18:21:19.527Z,0.45
2022-09-29T18:24:19.535Z,0.4
2022-09-29T18:27:19.505Z,0.65
2022-09-29T18:30:19.444Z,0.4
2022-09-29T18:33:19.459Z,0.3
2022-09-29T18:36:19.408Z,0.5
2022-09-29T18:39:19.496Z,0.45
2022-09-29T18:42:19.449Z,0.6
2022-09-29T18:45:19.533Z,1.25
2022-09-29T18:48:19.579Z,0.6
2022-09-29T18:51:22.273Z,0.65
2022-09-29T18:54:19.453Z,0.95
2022-09-29T18:57:19.444Z,0.75
2022-09-29T19:00:19.536Z,0.25
2022-09-29T19:03:19.532Z,0.2
2022-09-29T19:06:19.486Z,0.25
2022-09-29T19:09:19.805Z,0
2022-09-29T19:12:19.478Z,0.25
2022-09-29T19:15:19.478Z,0
2022-09-29T19:18:19.495Z,0
2022-09-29T19:21:19.470Z,0.15
2022-09-29T19:24:19.692Z,0.35
2022-09-29T19:27:19.508Z,0.4
2022-09-29T19:30:19.537Z,0.3
2022-09-29T19:33:19.518Z,0.5
2022-09-29T19:36:19.385Z,0.4
2022-09-29T19:39:19.596Z,0.2
2022-09-29T19:42:19.518Z,0.15
2022-09-29T19:45:19.446Z,0.3
2022-09-29T19:48:19.480Z,0.35
2022-09-29T19:51:19.498Z,0.3
2022-09-29T19:54:19.652Z,0.2
2022-09-29T19:57:19.480Z,0
2022-09-29T20:00:19.544Z,0
2022-09-29T20:03:19.522Z,0.15
2022-09-29T20:06:21.343Z,0.3
2022-09-29T20:09:19.577Z,0.35
2022-09-29T20:12:20.640Z,0.35
2022-09-29T20:15:19.545Z,0.45
2022-09-29T20:18:19.493Z,0.65
2022-09-29T20:21:19.528Z,0.5
2022-09-29T20:24:19.620Z,0.4
2022-09-29T20:27:19.496Z,0.3
2022-09-29T20:30:20.662Z,0.2
2022-09-29T20:33:19.529Z,0.4
2022-09-29T20:36:19.511Z,0.45
2022-09-29T20:39:19.520Z,0.45
2022-09-29T20:42:19.511Z,0.25
2022-09-29T20:45:19.550Z,0.25
2022-09-29T20:48:19.551Z,0.25
2022-09-29T20:51:19.555Z,0.1
2022-09-29T20:54:19.756Z,0.3
2022-09-29T20:57:19.548Z,0.3
2022-09-29T21:00:19.610Z,0.35
2022-09-29T21:03:19.628Z,0
2022-09-29T21:06:19.548Z,0.1
2022-09-29T21:09:19.712Z,0
2022-09-29T21:12:19.624Z,0.15
2022-09-29T21:15:19.574Z,0
2022-09-29T21:18:19.618Z,0
2022-09-29T21:21:19.594Z,0.3
2022-09-29T21:24:19.567Z,0.3
2022-09-29T21:27:19.624Z,0.1
2022-09-29T21:30:19.510Z,0.2
2022-09-29T21:33:19.576Z,0
2022-09-29T21:36:19.658Z,0
2022-09-29T21:39:19.571Z,0
2022-09-29T21:42:19.583Z,0
2022-09-29T21:45:19.609Z,0
2022-09-29T21:48:19.601Z,0
2022-09-29T21:51:19.607Z,0
2022-09-29T21:54:19.940Z,0
2022-09-29T21:57:19.697Z,0.25
2022-09-29T22:00:19.681Z,0.2
2022-09-29T22:03:19.692Z,0.3
2022-09-29T22:06:19.758Z,0.25
2022-09-29T22:09:19.813Z,0
2022-09-29T22:12:19.688Z,0.2
2022-09-29T22:15:19.690Z,0.2
2022-09-29T22:18:19.713Z,0.2
2022-09-29T22:21:19.669Z,0.15
2022-09-29T22:24:19.689Z,0.2
2022-09-29T22:27:19.717Z,0.15
2022-09-29T22:30:19.718Z,0.3
2022-09-29T22:33:19.708Z,0.3
2022-09-29T22:36:19.753Z,0.3
2022-09-29T22:39:20.005Z,0.35
2022-09-29T22:42:19.655Z,0.2
2022-09-29T22:45:19.664Z,0.3
2022-09-29T22:48:19.722Z,0
2022-09-29T22:51:19.767Z,0.1
2022-09-29T22:54:19.716Z,0
2022-09-29T22:57:19.805Z,0.15
2022-09-29T23:00:19.711Z,0
2022-09-29T23:03:19.679Z,0.2
2022-09-29T23:06:19.745Z,0.15
2022-09-29T23:09:19.936Z,0.2
2022-09-29T23:12:19.791Z,0.25
2022-09-29T23:15:19.656Z,0
2022-09-29T23:18:19.704Z,0
2022-09-29T23:21:19.947Z,0
2022-09-29T23:24:19.780Z,0
2022-09-29T23:27:19.705Z,0
2022-09-29T23:30:19.659Z,0
2022-09-29T23:33:19.691Z,0
2022-09-29T23:36:19.693Z,0
2022-09-29T23:39:19.741Z,0
2022-09-29T23:42:19.794Z,0
2022-09-29T23:45:19.738Z,0
2022-09-29T23:48:19.689Z,0
2022-09-29T23:51:19.758Z,0.15
2022-09-29T23:54:19.715Z,0.15
2022-09-29T23:57:19.846Z,0
